sensor_id;sensor_type;location;lat;lon;timestamp;pressure;altitude;pressure_sealevel;temperature;humidity
46394;BME280;32099;53.588;10.176;2024-02-28T00:00:34;101637.34;;;4.50;82.98
46394;BME280;32099;53.588;10.176;2024-02-28T00:03:00;101639.19;;;4.49;83.55
46394;BME280;32099;53.588;10.176;2024-02-28T00:05:25;101638.44;;;4.47;83.32
46394;BME280;32099;53.588;10.176;2024-02-28T00:07:51;101644.34;;;4.41;82.62
46394;BME280;32099;53.588;10.176;2024-02-28T00:10:17;101642.84;;;4.37;82.09
46394;BME280;32099;53.588;10.176;2024-02-28T00:12:45;101635.13;;;4.32;83.45
46394;BME280;32099;53.588;10.176;2024-02-28T00:15:11;101635.59;;;4.37;83.03
46394;BME280;32099;53.588;10.176;2024-02-28T00:17:38;101631.22;;;4.36;82.94
46394;BME280;32099;53.588;10.176;2024-02-28T00:20:05;101626.78;;;4.35;83.24
46394;BME280;32099;53.588;10.176;2024-02-28T00:22:31;101632.06;;;4.37;83.73
46394;BME280;32099;53.588;10.176;2024-02-28T00:24:57;101625.81;;;4.36;83.38
46394;BME280;32099;53.588;10.176;2024-02-28T00:27:23;101623.22;;;4.35;83.62
46394;BME280;32099;53.588;10.176;2024-02-28T00:29:51;101621.47;;;4.33;83.17
46394;BME280;32099;53.588;10.176;2024-02-28T00:32:17;101612.63;;;4.31;83.03
46394;BME280;32099;53.588;10.176;2024-02-28T00:34:42;101602.47;;;4.35;83.57
46394;BME280;32099;53.588;10.176;2024-02-28T00:37:08;101614.00;;;4.37;83.03
46394;BME280;32099;53.588;10.176;2024-02-28T00:39:34;101618.56;;;4.37;84.04
46394;BME280;32099;53.588;10.176;2024-02-28T00:41:59;101627.50;;;4.37;83.90
46394;BME280;32099;53.588;10.176;2024-02-28T00:44:25;101610.56;;;4.35;83.90
46394;BME280;32099;53.588;10.176;2024-02-28T00:46:53;101605.28;;;4.33;82.61
46394;BME280;32099;53.588;10.176;2024-02-28T00:49:19;101605.66;;;4.29;82.63
46394;BME280;32099;53.588;10.176;2024-02-28T00:51:45;101603.53;;;4.21;82.97
46394;BME280;32099;53.588;10.176;2024-02-28T00:54:11;101617.53;;;4.15;84.14
46394;BME280;32099;53.588;10.176;2024-02-28T00:56:37;101611.63;;;4.10;82.54
46394;BME280;32099;53.588;10.176;2024-02-28T00:59:03;101608.44;;;4.05;83.12
46394;BME280;32099;53.588;10.176;2024-02-28T01:01:28;101611.13;;;4.05;83.78
46394;BME280;32099;53.588;10.176;2024-02-28T01:03:57;101611.13;;;4.05;83.78
46394;BME280;32099;53.588;10.176;2024-02-28T01:06:22;101623.88;;;4.03;83.36
46394;BME280;32099;53.588;10.176;2024-02-28T01:08:48;101618.09;;;3.96;83.64
46394;BME280;32099;53.588;10.176;2024-02-28T01:11:15;101616.28;;;3.96;83.77
46394;BME280;32099;53.588;10.176;2024-02-28T01:13:41;101608.28;;;3.95;83.93
46394;BME280;32099;53.588;10.176;2024-02-28T01:16:07;101606.47;;;3.95;84.94
46394;BME280;32099;53.588;10.176;2024-02-28T01:18:32;101597.47;;;3.95;83.71
46394;BME280;32099;53.588;10.176;2024-02-28T01:21:01;101593.06;;;3.94;83.46
46394;BME280;32099;53.588;10.176;2024-02-28T01:23:27;101607.78;;;3.90;83.42
46394;BME280;32099;53.588;10.176;2024-02-28T01:25:53;101603.97;;;3.81;83.32
46394;BME280;32099;53.588;10.176;2024-02-28T01:28:19;101602.22;;;3.80;82.50
46394;BME280;32099;53.588;10.176;2024-02-28T01:30:45;101605.28;;;3.75;83.08
46394;BME280;32099;53.588;10.176;2024-02-28T01:33:11;101602.59;;;3.75;83.75
46394;BME280;32099;53.588;10.176;2024-02-28T01:35:37;101606.13;;;3.76;83.08
46394;BME280;32099;53.588;10.176;2024-02-28T01:38:05;101597.06;;;3.77;83.47
46394;BME280;32099;53.588;10.176;2024-02-28T01:40:31;101589.72;;;3.79;83.98
46394;BME280;32099;53.588;10.176;2024-02-28T01:43:02;101594.13;;;3.80;83.16
46394;BME280;32099;53.588;10.176;2024-02-28T01:45:28;101595.13;;;3.79;83.89
46394;BME280;32099;53.588;10.176;2024-02-28T01:47:53;101589.59;;;3.80;83.55
46394;BME280;32099;53.588;10.176;2024-02-28T01:50:19;101586.66;;;3.83;83.47
46394;BME280;32099;53.588;10.176;2024-02-28T01:52:45;101583.22;;;3.81;83.71
46394;BME280;32099;53.588;10.176;2024-02-28T01:55:14;101578.69;;;3.82;84.28
46394;BME280;32099;53.588;10.176;2024-02-28T01:57:40;101585.19;;;3.79;83.64
46394;BME280;32099;53.588;10.176;2024-02-28T02:00:07;101583.34;;;3.80;83.80
46394;BME280;32099;53.588;10.176;2024-02-28T02:02:33;101588.75;;;3.80;84.15
46394;BME280;32099;53.588;10.176;2024-02-28T02:04:59;101579.16;;;3.76;83.44
46394;BME280;32099;53.588;10.176;2024-02-28T02:07:25;101582.22;;;3.71;83.82
46394;BME280;32099;53.588;10.176;2024-02-28T02:09:51;101582.22;;;3.71;83.72
46394;BME280;32099;53.588;10.176;2024-02-28T02:12:19;101591.28;;;3.70;83.38
46394;BME280;32099;53.588;10.176;2024-02-28T02:14:47;101583.31;;;3.68;83.25
46394;BME280;32099;53.588;10.176;2024-02-28T02:17:12;101575.22;;;3.68;83.82
46394;BME280;32099;53.588;10.176;2024-02-28T02:19:38;101579.75;;;3.68;84.55
46394;BME280;32099;53.588;10.176;2024-02-28T02:22:04;101586.22;;;3.65;84.40
46394;BME280;32099;53.588;10.176;2024-02-28T02:24:35;101597.91;;;3.66;83.83
46394;BME280;32099;53.588;10.176;2024-02-28T02:27:02;101607.72;;;3.67;83.57
46394;BME280;32099;53.588;10.176;2024-02-28T02:29:28;101599.63;;;3.67;84.29
46394;BME280;32099;53.588;10.176;2024-02-28T02:31:54;101604.13;;;3.66;83.99
46394;BME280;32099;53.588;10.176;2024-02-28T02:34:19;101604.28;;;3.65;83.39
46394;BME280;32099;53.588;10.176;2024-02-28T02:36:45;101601.66;;;3.63;83.97
46394;BME280;32099;53.588;10.176;2024-02-28T02:39:11;101607.06;;;3.63;84.09
46394;BME280;32099;53.588;10.176;2024-02-28T02:41:40;101592.59;;;3.64;84.38
46394;BME280;32099;53.588;10.176;2024-02-28T02:44:05;101572.34;;;3.59;83.70
46394;BME280;32099;53.588;10.176;2024-02-28T02:46:32;101593.97;;;3.70;84.34
46394;BME280;32099;53.588;10.176;2024-02-28T02:48:58;101602.19;;;3.68;84.70
46394;BME280;32099;53.588;10.176;2024-02-28T02:51:23;101604.75;;;3.70;84.61
46394;BME280;32099;53.588;10.176;2024-02-28T02:53:49;101606.75;;;3.68;84.37
46394;BME280;32099;53.588;10.176;2024-02-28T02:56:15;101617.53;;;3.68;84.59
46394;BME280;32099;53.588;10.176;2024-02-28T02:58:43;101617.28;;;3.71;84.20
46394;BME280;32099;53.588;10.176;2024-02-28T03:01:09;101614.56;;;3.71;83.74
46394;BME280;32099;53.588;10.176;2024-02-28T03:03:34;101611.38;;;3.66;84.58
46394;BME280;32099;53.588;10.176;2024-02-28T03:06:00;101617.00;;;3.63;83.85
46394;BME280;32099;53.588;10.176;2024-02-28T03:08:26;101611.63;;;3.63;84.33
46394;BME280;32099;53.588;10.176;2024-02-28T03:10:51;101614.44;;;3.61;84.24
46394;BME280;32099;53.588;10.176;2024-02-28T03:13:17;101616.47;;;3.58;84.36
46394;BME280;32099;53.588;10.176;2024-02-28T03:15:45;101610.47;;;3.54;84.68
46394;BME280;32099;53.588;10.176;2024-02-28T03:18:11;101619.44;;;3.54;84.20
46394;BME280;32099;53.588;10.176;2024-02-28T03:20:37;101622.88;;;3.57;84.13
46394;BME280;32099;53.588;10.176;2024-02-28T03:23:02;101622.22;;;3.53;83.85
46394;BME280;32099;53.588;10.176;2024-02-28T03:25:28;101624.16;;;3.51;83.94
46394;BME280;32099;53.588;10.176;2024-02-28T03:27:54;101620.41;;;3.53;83.92
46394;BME280;32099;53.588;10.176;2024-02-28T03:30:20;101621.88;;;3.58;84.08
46394;BME280;32099;53.588;10.176;2024-02-28T03:32:48;101625.31;;;3.60;84.02
46394;BME280;32099;53.588;10.176;2024-02-28T03:35:14;101622.88;;;3.57;83.65
46394;BME280;32099;53.588;10.176;2024-02-28T03:37:40;101615.63;;;3.57;84.20
46394;BME280;32099;53.588;10.176;2024-02-28T03:40:07;101625.31;;;3.60;84.25
46394;BME280;32099;53.588;10.176;2024-02-28T03:42:33;101625.31;;;3.60;84.45
46394;BME280;32099;53.588;10.176;2024-02-28T03:44:59;101622.53;;;3.61;84.07
46394;BME280;32099;53.588;10.176;2024-02-28T03:47:25;101625.09;;;3.63;83.62
46394;BME280;32099;53.588;10.176;2024-02-28T03:49:53;101616.38;;;3.59;84.05
46394;BME280;32099;53.588;10.176;2024-02-28T03:52:19;101609.13;;;3.60;83.76
46394;BME280;32099;53.588;10.176;2024-02-28T03:54:45;101609.28;;;3.58;82.92
46394;BME280;32099;53.588;10.176;2024-02-28T03:57:11;101609.50;;;3.55;83.33
46394;BME280;32099;53.588;10.176;2024-02-28T03:59:36;101602.38;;;3.54;84.45
46394;BME280;32099;53.588;10.176;2024-02-28T04:02:02;101607.41;;;3.59;83.59
46394;BME280;32099;53.588;10.176;2024-02-28T04:04:28;101611.84;;;3.60;83.96
46394;BME280;32099;53.588;10.176;2024-02-28T04:06:56;101606.44;;;3.60;83.66
46394;BME280;32099;53.588;10.176;2024-02-28T04:09:22;101606.22;;;3.63;83.87
46394;BME280;32099;53.588;10.176;2024-02-28T04:11:47;101611.63;;;3.63;83.46
46394;BME280;32099;53.588;10.176;2024-02-28T04:14:13;101606.97;;;3.65;84.33
46394;BME280;32099;53.588;10.176;2024-02-28T04:16:40;101610.16;;;3.70;84.03
46394;BME280;32099;53.588;10.176;2024-02-28T04:19:07;101602.81;;;3.72;84.07
46394;BME280;32099;53.588;10.176;2024-02-28T04:21:33;101600.25;;;3.70;83.75
46394;BME280;32099;53.588;10.176;2024-02-28T04:24:01;101595.81;;;3.69;84.07
46394;BME280;32099;53.588;10.176;2024-02-28T04:26:27;101600.25;;;3.70;83.62
46394;BME280;32099;53.588;10.176;2024-02-28T04:28:53;101596.66;;;3.70;84.26
46394;BME280;32099;53.588;10.176;2024-02-28T04:31:19;101593.88;;;3.72;83.51
46394;BME280;32099;53.588;10.176;2024-02-28T04:33:45;101598.28;;;3.73;84.32
46394;BME280;32099;53.588;10.176;2024-02-28T04:36:11;101606.38;;;3.73;83.43
46394;BME280;32099;53.588;10.176;2024-02-28T04:38:36;101608.13;;;3.74;83.54
46394;BME280;32099;53.588;10.176;2024-02-28T04:41:05;101595.69;;;3.71;83.26
46394;BME280;32099;53.588;10.176;2024-02-28T04:43:31;101610.28;;;3.68;83.43
46394;BME280;32099;53.588;10.176;2024-02-28T04:45:57;101617.53;;;3.68;84.36
46394;BME280;32099;53.588;10.176;2024-02-28T04:48:23;101609.31;;;3.69;85.40
46394;BME280;32099;53.588;10.176;2024-02-28T04:50:49;101611.78;;;3.73;84.40
46394;BME280;32099;53.588;10.176;2024-02-28T04:53:14;101612.50;;;3.75;84.03
46394;BME280;32099;53.588;10.176;2024-02-28T04:55:40;101617.81;;;3.76;84.73
46394;BME280;32099;53.588;10.176;2024-02-28T04:58:09;101625.91;;;3.76;84.22
46394;BME280;32099;53.588;10.176;2024-02-28T05:00:34;101624.16;;;3.75;84.52
46394;BME280;32099;53.588;10.176;2024-02-28T05:03:00;101626.00;;;3.75;84.14
46394;BME280;32099;53.588;10.176;2024-02-28T05:05:26;101623.41;;;3.73;84.20
46394;BME280;32099;53.588;10.176;2024-02-28T05:07:51;101635.19;;;3.72;84.15
46394;BME280;32099;53.588;10.176;2024-02-28T05:10:17;101627.22;;;3.70;84.20
46394;BME280;32099;53.588;10.176;2024-02-28T05:12:43;101623.56;;;3.72;84.20
46394;BME280;32099;53.588;10.176;2024-02-28T05:15:11;101626.13;;;3.73;84.27
46394;BME280;32099;53.588;10.176;2024-02-28T05:17:38;101636.28;;;3.69;84.36
46394;BME280;32099;53.588;10.176;2024-02-28T05:20:07;101622.94;;;3.68;83.46
46394;BME280;32099;53.588;10.176;2024-02-28T05:22:34;101626.94;;;3.62;84.14
46394;BME280;32099;53.588;10.176;2024-02-28T05:24:59;101625.09;;;3.63;84.88
46394;BME280;32099;53.588;10.176;2024-02-28T05:27:25;101622.41;;;3.63;84.58
46394;BME280;32099;53.588;10.176;2024-02-28T05:29:51;101625.09;;;3.63;84.31
46394;BME280;32099;53.588;10.176;2024-02-28T05:32:19;101623.25;;;3.63;84.48
46394;BME280;32099;53.588;10.176;2024-02-28T05:34:45;101631.25;;;3.65;84.66
46394;BME280;32099;53.588;10.176;2024-02-28T05:37:11;101627.66;;;3.64;84.90
46394;BME280;32099;53.588;10.176;2024-02-28T05:39:37;101634.91;;;3.64;84.94
46394;BME280;32099;53.588;10.176;2024-02-28T05:42:03;101630.50;;;3.63;84.81
46394;BME280;32099;53.588;10.176;2024-02-28T05:44:29;101638.47;;;3.64;84.07
46394;BME280;32099;53.588;10.176;2024-02-28T05:46:55;101635.75;;;3.64;84.67
46394;BME280;32099;53.588;10.176;2024-02-28T05:49:23;101643.00;;;3.64;85.15
46394;BME280;32099;53.588;10.176;2024-02-28T05:51:49;101642.13;;;3.63;84.74
46394;BME280;32099;53.588;10.176;2024-02-28T05:54:15;101617.53;;;3.44;84.91
46394;BME280;32099;53.588;10.176;2024-02-28T05:56:41;101656.38;;;3.65;85.80
46394;BME280;32099;53.588;10.176;2024-02-28T05:59:07;101646.69;;;3.63;84.53
46394;BME280;32099;53.588;10.176;2024-02-28T06:01:33;101649.50;;;3.61;85.48
46394;BME280;32099;53.588;10.176;2024-02-28T06:03:58;101647.88;;;3.59;84.99
46394;BME280;32099;53.588;10.176;2024-02-28T06:06:27;101641.75;;;3.57;85.47
46394;BME280;32099;53.588;10.176;2024-02-28T06:08:53;101652.44;;;3.58;85.46
46394;BME280;32099;53.588;10.176;2024-02-28T06:11:18;101657.94;;;3.57;85.50
46394;BME280;32099;53.588;10.176;2024-02-28T06:13:44;101655.47;;;3.53;85.62
46394;BME280;32099;53.588;10.176;2024-02-28T06:16:13;101657.63;;;3.48;85.49
46394;BME280;32099;53.588;10.176;2024-02-28T06:18:39;101652.59;;;3.44;85.98
46394;BME280;32099;53.588;10.176;2024-02-28T06:21:04;101660.91;;;3.40;86.32
46394;BME280;32099;53.588;10.176;2024-02-28T06:23:33;101655.50;;;3.40;86.00
46394;BME280;32099;53.588;10.176;2024-02-28T06:25:58;101661.66;;;3.43;86.60
46394;BME280;32099;53.588;10.176;2024-02-28T06:28:24;101660.69;;;3.44;86.46
46394;BME280;32099;53.588;10.176;2024-02-28T06:30:50;101666.81;;;3.46;86.44
46394;BME280;32099;53.588;10.176;2024-02-28T06:33:16;101669.41;;;3.47;85.95
46394;BME280;32099;53.588;10.176;2024-02-28T06:35:41;101673.19;;;3.45;86.22
46394;BME280;32099;53.588;10.176;2024-02-28T06:38:07;101683.13;;;3.44;86.34
46394;BME280;32099;53.588;10.176;2024-02-28T06:40:35;101684.59;;;3.48;86.71
46394;BME280;32099;53.588;10.176;2024-02-28T06:43:01;101684.38;;;3.51;86.70
46394;BME280;32099;53.588;10.176;2024-02-28T06:45:27;101685.97;;;3.54;86.90
46394;BME280;32099;53.588;10.176;2024-02-28T06:47:52;101688.34;;;3.59;86.40
46394;BME280;32099;53.588;10.176;2024-02-28T06:50:18;101692.66;;;3.61;86.66
46394;BME280;32099;53.588;10.176;2024-02-28T06:52:44;101696.63;;;3.68;86.91
46394;BME280;32099;53.588;10.176;2024-02-28T06:55:10;101698.34;;;3.69;85.86
46394;BME280;32099;53.588;10.176;2024-02-28T06:57:39;101696.84;;;3.65;85.64
46394;BME280;32099;53.588;10.176;2024-02-28T07:00:07;101704.19;;;3.63;85.83
46394;BME280;32099;53.588;10.176;2024-02-28T07:02:34;101707.75;;;3.64;85.15
46394;BME280;32099;53.588;10.176;2024-02-28T07:05:03;101703.31;;;3.63;85.97
46394;BME280;32099;53.588;10.176;2024-02-28T07:07:29;101703.44;;;3.61;85.94
46394;BME280;32099;53.588;10.176;2024-02-28T07:09:55;101701.47;;;3.63;86.05
46394;BME280;32099;53.588;10.176;2024-02-28T07:12:21;101705.81;;;3.66;86.23
46394;BME280;32099;53.588;10.176;2024-02-28T07:14:49;101702.00;;;3.68;86.40
46394;BME280;32099;53.588;10.176;2024-02-28T07:17:14;101699.94;;;3.72;86.37
46394;BME280;32099;53.588;10.176;2024-02-28T07:19:40;101707.06;;;3.73;86.31
46394;BME280;32099;53.588;10.176;2024-02-28T07:22:06;101640.53;;;3.36;85.80
46394;BME280;32099;53.588;10.176;2024-02-28T07:24:31;101717.50;;;3.78;86.70
46394;BME280;32099;53.588;10.176;2024-02-28T07:26:57;101717.50;;;3.78;86.70
46394;BME280;32099;53.588;10.176;2024-02-28T07:29:23;101724.50;;;3.80;85.85
46394;BME280;32099;53.588;10.176;2024-02-28T07:31:51;101719.09;;;3.80;85.89
46394;BME280;32099;53.588;10.176;2024-02-28T07:34:17;101721.69;;;3.82;85.49
46394;BME280;32099;53.588;10.176;2024-02-28T07:36:43;101715.56;;;3.80;85.90
46394;BME280;32099;53.588;10.176;2024-02-28T07:39:08;101709.81;;;3.84;86.48
46394;BME280;32099;53.588;10.176;2024-02-28T07:41:34;101591.50;;;3.07;86.25
46394;BME280;32099;53.588;10.176;2024-02-28T07:44:00;101719.06;;;3.93;86.23
46394;BME280;32099;53.588;10.176;2024-02-28T07:46:25;101714.28;;;3.97;86.35
46394;BME280;32099;53.588;10.176;2024-02-28T07:48:54;101715.88;;;3.99;86.20
46394;BME280;32099;53.588;10.176;2024-02-28T07:51:19;101714.81;;;4.02;86.00
46394;BME280;32099;53.588;10.176;2024-02-28T07:53:45;101709.16;;;4.05;86.04
46394;BME280;32099;53.588;10.176;2024-02-28T07:56:15;101713.47;;;4.08;85.59
46394;BME280;32099;53.588;10.176;2024-02-28T07:58:41;101713.34;;;4.09;86.08
46394;BME280;32099;53.588;10.176;2024-02-28T08:01:06;101717.28;;;4.16;85.89
46394;BME280;32099;53.588;10.176;2024-02-28T08:03:32;101720.38;;;4.23;85.62
46394;BME280;32099;53.588;10.176;2024-02-28T08:06:00;101728.25;;;4.26;84.55
46394;BME280;32099;53.588;10.176;2024-02-28T08:08:26;101727.16;;;4.29;85.33
46394;BME280;32099;53.588;10.176;2024-02-28T08:10:52;101720.56;;;4.33;85.71
46394;BME280;32099;53.588;10.176;2024-02-28T08:13:17;101723.13;;;4.35;84.71
46394;BME280;32099;53.588;10.176;2024-02-28T08:15:43;101730.38;;;4.34;85.35
46394;BME280;32099;53.588;10.176;2024-02-28T08:18:09;101727.56;;;4.36;85.59
46394;BME280;32099;53.588;10.176;2024-02-28T08:20:34;101728.44;;;4.36;84.61
46394;BME280;32099;53.588;10.176;2024-02-28T08:23:03;101729.41;;;4.35;85.23
46394;BME280;32099;53.588;10.176;2024-02-28T08:25:29;101732.22;;;4.33;84.76
46394;BME280;32099;53.588;10.176;2024-02-28T08:27:54;101737.88;;;4.30;85.30
46394;BME280;32099;53.588;10.176;2024-02-28T08:30:20;101735.03;;;4.32;84.80
46394;BME280;32099;53.588;10.176;2024-02-28T08:32:46;101739.31;;;4.35;85.10
46394;BME280;32099;53.588;10.176;2024-02-28T08:35:11;101745.34;;;4.38;84.64
46394;BME280;32099;53.588;10.176;2024-02-28T08:37:38;101738.00;;;4.40;84.95
46394;BME280;32099;53.588;10.176;2024-02-28T08:40:07;101745.03;;;4.43;84.50
46394;BME280;32099;53.588;10.176;2024-02-28T08:42:33;101740.34;;;4.45;84.26
46394;BME280;32099;53.588;10.176;2024-02-28T08:44:59;101742.81;;;4.48;84.16
46394;BME280;32099;53.588;10.176;2024-02-28T08:47:25;101743.44;;;4.52;84.37
46394;BME280;32099;53.588;10.176;2024-02-28T08:49:52;101742.84;;;4.59;85.35
46394;BME280;32099;53.588;10.176;2024-02-28T08:52:18;101744.34;;;4.75;84.59
46394;BME280;32099;53.588;10.176;2024-02-28T08:54:44;101754.44;;;4.84;84.56
46394;BME280;32099;53.588;10.176;2024-02-28T08:57:12;101744.75;;;5.04;84.26
46394;BME280;32099;53.588;10.176;2024-02-28T08:59:38;101743.13;;;5.24;83.06
46394;BME280;32099;53.588;10.176;2024-02-28T09:02:04;101737.72;;;5.36;83.50
46394;BME280;32099;53.588;10.176;2024-02-28T09:04:29;101736.00;;;5.46;82.72
46394;BME280;32099;53.588;10.176;2024-02-28T09:06:55;101731.19;;;5.61;83.92
46394;BME280;32099;53.588;10.176;2024-02-28T09:09:20;101744.16;;;5.79;81.98
46394;BME280;32099;53.588;10.176;2024-02-28T09:11:46;101748.84;;;5.77;81.24
46394;BME280;32099;53.588;10.176;2024-02-28T09:14:14;101746.41;;;5.74;81.72
46394;BME280;32099;53.588;10.176;2024-02-28T09:16:40;101754.13;;;5.78;81.44
46394;BME280;32099;53.588;10.176;2024-02-28T09:19:06;101749.72;;;5.77;81.23
46394;BME280;32099;53.588;10.176;2024-02-28T09:21:31;101760.91;;;5.84;81.08
46394;BME280;32099;53.588;10.176;2024-02-28T09:23:57;101753.47;;;5.97;81.30
46394;BME280;32099;53.588;10.176;2024-02-28T09:26:23;101750.47;;;6.12;81.32
46394;BME280;32099;53.588;10.176;2024-02-28T09:28:48;101750.53;;;6.33;82.48
46394;BME280;32099;53.588;10.176;2024-02-28T09:31:17;101755.75;;;6.46;80.63
46394;BME280;32099;53.588;10.176;2024-02-28T09:33:43;101744.72;;;6.59;80.77
46394;BME280;32099;53.588;10.176;2024-02-28T09:36:09;101755.03;;;6.65;80.33
46394;BME280;32099;53.588;10.176;2024-02-28T09:38:34;101757.88;;;6.63;79.72
46394;BME280;32099;53.588;10.176;2024-02-28T09:41:00;101754.56;;;6.60;79.63
46394;BME280;32099;53.588;10.176;2024-02-28T09:43:28;101759.13;;;6.59;79.68
46394;BME280;32099;53.588;10.176;2024-02-28T09:45:56;101759.13;;;6.59;80.70
46394;BME280;32099;53.588;10.176;2024-02-28T09:48:27;101747.44;;;6.59;80.53
46394;BME280;32099;53.588;10.176;2024-02-28T09:50:53;101763.81;;;6.57;80.19
46394;BME280;32099;53.588;10.176;2024-02-28T09:53:19;101758.38;;;6.57;81.04
46394;BME280;32099;53.588;10.176;2024-02-28T09:55:45;101761.72;;;6.61;80.69
46394;BME280;32099;53.588;10.176;2024-02-28T09:58:11;101757.13;;;6.61;80.65
46394;BME280;32099;53.588;10.176;2024-02-28T10:00:37;101756.22;;;6.72;82.13
46394;BME280;32099;53.588;10.176;2024-02-28T10:03:04;101750.00;;;6.82;81.32
46394;BME280;32099;53.588;10.176;2024-02-28T10:05:34;101749.09;;;7.02;81.61
46394;BME280;32099;53.588;10.176;2024-02-28T10:08:01;101741.25;;;7.30;78.59
46394;BME280;32099;53.588;10.176;2024-02-28T10:10:26;101750.16;;;7.52;78.62
46394;BME280;32099;53.588;10.176;2024-02-28T10:12:53;101752.75;;;7.73;78.18
46394;BME280;32099;53.588;10.176;2024-02-28T10:15:19;101749.38;;;7.91;77.76
46394;BME280;32099;53.588;10.176;2024-02-28T10:17:44;101741.81;;;7.94;76.50
46394;BME280;32099;53.588;10.176;2024-02-28T10:20:10;101756.81;;;7.88;77.64
46394;BME280;32099;53.588;10.176;2024-02-28T10:22:39;101686.47;;;7.66;77.63
46394;BME280;32099;53.588;10.176;2024-02-28T10:25:05;101750.81;;;8.24;77.86
46394;BME280;32099;53.588;10.176;2024-02-28T10:27:32;101750.66;;;8.36;77.58
46394;BME280;32099;53.588;10.176;2024-02-28T10:29:58;101752.09;;;8.59;76.54
46394;BME280;32099;53.588;10.176;2024-02-28T10:32:23;101765.09;;;8.85;75.75
46394;BME280;32099;53.588;10.176;2024-02-28T10:34:49;101750.66;;;8.85;74.59
46394;BME280;32099;53.588;10.176;2024-02-28T10:37:15;101759.09;;;8.82;76.54
46394;BME280;32099;53.588;10.176;2024-02-28T10:39:45;101770.97;;;8.80;73.91
46394;BME280;32099;53.588;10.176;2024-02-28T10:42:12;101768.81;;;8.74;75.13
46394;BME280;32099;53.588;10.176;2024-02-28T10:44:40;101759.50;;;8.87;73.64
46394;BME280;32099;53.588;10.176;2024-02-28T10:47:07;101776.91;;;9.04;75.99
46394;BME280;32099;53.588;10.176;2024-02-28T10:49:33;101768.38;;;9.26;74.59
46394;BME280;32099;53.588;10.176;2024-02-28T10:51:59;101773.59;;;9.48;73.96
46394;BME280;32099;53.588;10.176;2024-02-28T10:54:28;101771.22;;;9.63;74.99
46394;BME280;32099;53.588;10.176;2024-02-28T10:56:57;101772.91;;;9.73;74.33
46394;BME280;32099;53.588;10.176;2024-02-28T10:59:23;101775.41;;;9.85;73.31
46394;BME280;32099;53.588;10.176;2024-02-28T11:01:51;101773.84;;;9.82;74.12
46394;BME280;32099;53.588;10.176;2024-02-28T11:04:17;101772.75;;;9.75;72.90
46394;BME280;32099;53.588;10.176;2024-02-28T11:06:49;101780.09;;;9.65;73.28
46394;BME280;32099;53.588;10.176;2024-02-28T11:09:18;101770.03;;;9.47;74.37
46394;BME280;32099;53.588;10.176;2024-02-28T11:11:45;101771.50;;;9.41;73.95
46394;BME280;32099;53.588;10.176;2024-02-28T11:14:14;101769.25;;;9.27;73.53
46394;BME280;32099;53.588;10.176;2024-02-28T11:16:40;101770.44;;;9.15;72.62
46394;BME280;32099;53.588;10.176;2024-02-28T11:19:06;101775.22;;;9.03;76.21
46394;BME280;32099;53.588;10.176;2024-02-28T11:21:34;101773.78;;;8.99;75.38
46394;BME280;32099;53.588;10.176;2024-02-28T11:24:00;101767.25;;;8.91;74.78
46394;BME280;32099;53.588;10.176;2024-02-28T11:26:27;101763.94;;;8.88;75.78
46394;BME280;32099;53.588;10.176;2024-02-28T11:28:53;101763.25;;;8.86;76.02
46394;BME280;32099;53.588;10.176;2024-02-28T11:31:28;101755.22;;;8.84;75.44
46394;BME280;32099;53.588;10.176;2024-02-28T11:33:54;101761.53;;;8.85;75.94
46394;BME280;32099;53.588;10.176;2024-02-28T11:36:38;101764.81;;;8.88;75.61
46394;BME280;32099;53.588;10.176;2024-02-28T11:39:06;101774.13;;;8.86;74.70
46394;BME280;32099;53.588;10.176;2024-02-28T11:41:34;101775.41;;;8.82;77.50
46394;BME280;32099;53.588;10.176;2024-02-28T11:44:00;101777.84;;;8.85;77.64
46394;BME280;32099;53.588;10.176;2024-02-28T11:46:29;101764.38;;;8.83;76.21
46394;BME280;32099;53.588;10.176;2024-02-28T11:48:54;101770.81;;;8.82;75.75
46394;BME280;32099;53.588;10.176;2024-02-28T11:51:20;101768.41;;;8.79;75.76
46394;BME280;32099;53.588;10.176;2024-02-28T11:53:46;101776.72;;;8.68;75.83
46394;BME280;32099;53.588;10.176;2024-02-28T11:56:11;101773.47;;;8.54;76.64
46394;BME280;32099;53.588;10.176;2024-02-28T11:58:37;101767.44;;;8.51;77.18
46394;BME280;32099;53.588;10.176;2024-02-28T12:01:03;101773.72;;;8.51;77.28
46394;BME280;32099;53.588;10.176;2024-02-28T12:03:31;101774.56;;;8.52;75.83
46394;BME280;32099;53.588;10.176;2024-02-28T12:05:57;101774.88;;;8.48;77.72
46394;BME280;32099;53.588;10.176;2024-02-28T12:08:23;101767.72;;;8.47;77.01
46394;BME280;32099;53.588;10.176;2024-02-28T12:10:48;101770.16;;;8.51;77.10
46394;BME280;32099;53.588;10.176;2024-02-28T12:13:17;101704.91;;;8.11;77.49
46394;BME280;32099;53.588;10.176;2024-02-28T12:15:43;101772.88;;;8.51;76.80
46394;BME280;32099;53.588;10.176;2024-02-28T12:18:10;101768.84;;;8.45;77.23
46394;BME280;32099;53.588;10.176;2024-02-28T12:20:39;101764.41;;;8.44;76.81
46394;BME280;32099;53.588;10.176;2024-02-28T12:23:04;101757.69;;;8.48;76.32
46394;BME280;32099;53.588;10.176;2024-02-28T12:25:31;101756.41;;;8.52;77.41
46394;BME280;32099;53.588;10.176;2024-02-28T12:27:56;101753.25;;;8.57;75.83
46394;BME280;32099;53.588;10.176;2024-02-28T12:30:22;101752.41;;;8.56;75.64
46394;BME280;32099;53.588;10.176;2024-02-28T12:32:48;101757.69;;;8.58;75.71
46394;BME280;32099;53.588;10.176;2024-02-28T12:35:17;101759.41;;;8.59;76.75
46394;BME280;32099;53.588;10.176;2024-02-28T12:37:48;101750.81;;;8.54;75.15
46394;BME280;32099;53.588;10.176;2024-02-28T12:40:14;101744.81;;;8.50;77.63
46394;BME280;32099;53.588;10.176;2024-02-28T12:42:41;101744.41;;;8.45;76.83
46394;BME280;32099;53.588;10.176;2024-02-28T12:45:08;101742.34;;;8.47;77.54